createdAt,value
2022-08-05T00:01:35.732Z,97476.09
2022-08-05T00:04:05.169Z,97476.09
2022-08-05T00:06:36.469Z,97475.10
2022-08-05T00:09:05.358Z,97473.73
2022-08-05T00:11:49.115Z,97467.36
2022-08-05T00:14:26.459Z,97468.85
2022-08-05T00:16:57.205Z,97467.63
2022-08-05T00:19:33.216Z,97467.70
2022-08-05T00:22:11.330Z,97468.32
2022-08-05T00:24:42.192Z,97466.96
2022-08-05T00:27:16.595Z,97466.59
2022-08-05T00:29:45.101Z,97468.17
2022-08-05T00:32:15.306Z,97466.85
2022-08-05T00:35:05.065Z,97466.95
2022-08-05T00:37:51.222Z,97468.11
2022-08-05T00:40:26.945Z,97464.53
2022-08-05T00:42:58.577Z,97464.23
2022-08-05T00:45:37.946Z,97461.35
2022-08-05T00:48:09.261Z,97459.47
2022-08-05T00:50:38.735Z,97458.75
2022-08-05T00:53:59.933Z,97455.83
2022-08-05T00:55:57.843Z,97456.75
2022-08-05T00:58:27.464Z,97456.59
2022-08-05T01:00:56.410Z,97455.32
2022-08-05T01:03:33.310Z,97453.33
2022-08-05T01:06:03.765Z,97458.90
2022-08-05T01:08:43.446Z,97462.39
2022-08-05T01:11:24.235Z,97458.23
2022-08-05T01:14:08.815Z,97453.28
2022-08-05T01:16:44.478Z,97453.63
2022-08-05T01:19:36.664Z,97451.14
2022-08-05T01:22:27.740Z,97452.78
2022-08-05T01:25:05.288Z,97453.21
2022-08-05T01:27:54.875Z,97449.63
2022-08-05T01:30:34.769Z,97451.42
2022-08-05T01:33:06.276Z,97453.81
2022-08-05T01:35:51.722Z,97454.65
2022-08-05T01:38:27.292Z,97453.86
2022-08-05T01:40:58.959Z,97452.46
2022-08-05T01:43:27.833Z,97453.34
2022-08-05T01:45:57.111Z,97452.95
2022-08-05T01:48:27.631Z,97450.89
2022-08-05T01:50:57.061Z,97452.45
2022-08-05T01:53:56.915Z,97449.90
2022-08-05T01:58:09.707Z,97450.34
2022-08-05T01:59:08.012Z,97449.86
2022-08-05T02:01:39.887Z,97448.65
2022-08-05T02:04:10.208Z,97447.42
2022-08-05T02:06:39.578Z,97445.29
2022-08-05T02:09:09.960Z,97438.77
2022-08-05T02:11:52.319Z,97441.04
2022-08-05T02:14:29.201Z,97439.63
2022-08-05T02:17:05.998Z,97439.55
2022-08-05T02:19:47.294Z,97442.05
2022-08-05T02:22:26.787Z,97438.00
2022-08-05T02:25:02.244Z,97440.20
2022-08-05T02:27:58.910Z,97439.20
2022-08-05T02:30:22.739Z,97436.09
2022-08-05T02:32:52.665Z,97434.25
2022-08-05T02:35:27.718Z,97433.89
2022-08-05T02:37:59.089Z,97436.83
2022-08-05T02:40:28.940Z,97436.80
2022-08-05T02:42:57.901Z,97435.11
2022-08-05T02:45:27.143Z,97433.73
2022-08-05T02:48:06.999Z,97437.70
2022-08-05T02:50:44.425Z,97436.14
2022-08-05T02:53:16.040Z,97436.24
2022-08-05T02:56:00.051Z,97429.04
2022-08-05T02:58:31.153Z,97428.20
2022-08-05T03:01:01.906Z,97429.48
2022-08-05T03:03:34.104Z,97429.08
2022-08-05T03:06:55.755Z,97431.02
2022-08-05T03:09:11.528Z,97434.84
2022-08-05T03:11:54.980Z,97436.13
2022-08-05T03:14:26.261Z,97438.59
2022-08-05T03:16:54.498Z,97442.65
2022-08-05T03:19:34.627Z,97440.03
2022-08-05T03:22:04.915Z,97441.95
2022-08-05T03:24:33.659Z,97446.17
2022-08-05T03:27:03.155Z,97446.52
2022-08-05T03:29:45.681Z,97443.94
2022-08-05T03:32:30.626Z,97440.59
2022-08-05T03:34:59.744Z,97441.45
2022-08-05T03:37:30.977Z,97443.17
2022-08-05T03:40:11.892Z,97446.56
2022-08-05T03:42:52.594Z,97445.91
2022-08-05T03:45:23.332Z,97446.75
2022-08-05T03:47:57.182Z,97449.10
2022-08-05T03:50:29.137Z,97447.50
2022-08-05T03:55:49.808Z,97444.64
2022-08-05T03:56:17.968Z,97444.36
2022-08-05T03:58:57.891Z,97444.08
2022-08-05T04:01:27.130Z,97444.36
2022-08-05T04:04:10.099Z,97444.59
2022-08-05T04:06:47.530Z,97444.25
2022-08-05T04:09:20.470Z,97443.25
2022-08-05T04:11:56.763Z,97442.61
2022-08-05T04:14:30.250Z,97437.81
2022-08-05T04:17:00.543Z,97437.10
2022-08-05T04:19:29.298Z,97438.36
2022-08-05T04:22:09.131Z,97439.23
2022-08-05T04:24:43.915Z,97438.73
2022-08-05T04:27:13.592Z,97439.66
2022-08-05T04:29:41.753Z,97439.73
2022-08-05T04:32:10.751Z,97442.14
2022-08-05T04:34:42.929Z,97444.12
2022-08-05T04:37:11.549Z,97442.33
2022-08-05T04:39:40.826Z,97443.93
2022-08-05T04:42:09.402Z,97441.89
2022-08-05T04:44:37.446Z,97438.75
2022-08-05T04:47:09.082Z,97438.40
2022-08-05T04:50:02.951Z,97434.07
2022-08-05T04:52:27.474Z,97434.94
2022-08-05T04:54:57.419Z,97433.93
2022-08-05T04:57:29.154Z,97436.41
2022-08-05T04:59:58.604Z,97434.61
2022-08-05T05:02:37.136Z,97431.02
2022-08-05T05:05:26.309Z,97429.23
2022-08-05T05:08:01.642Z,97428.78
2022-08-05T05:10:33.759Z,97426.73
2022-08-05T05:13:03.960Z,97423.02
2022-08-05T05:15:56.546Z,97425.13
2022-08-05T05:18:28.494Z,97423.31
2022-08-05T05:21:02.361Z,97422.11
2022-08-05T05:24:02.398Z,97421.64
2022-08-05T05:26:19.713Z,97419.98
2022-08-05T05:28:57.055Z,97421.10
2022-08-05T05:31:25.197Z,97422.09
2022-08-05T05:34:02.241Z,97415.92
2022-08-05T05:36:32.146Z,97415.38
2022-08-05T05:39:00.329Z,97416.86
2022-08-05T05:41:39.965Z,97420.14
2022-08-05T05:44:35.860Z,97418.16
2022-08-05T05:46:58.099Z,97422.05
2022-08-05T05:49:26.565Z,97417.91
2022-08-05T05:51:55.052Z,97418.90
2022-08-05T05:54:50.558Z,97421.09
2022-08-05T05:57:13.470Z,97420.16
2022-08-05T05:59:41.811Z,97418.36
2022-08-05T06:02:11.275Z,97416.00
2022-08-05T06:04:39.375Z,97414.61
2022-08-05T06:07:07.521Z,97411.58
2022-08-05T06:10:01.676Z,97416.63
2022-08-05T06:12:27.210Z,97418.42
2022-08-05T06:14:56.338Z,97419.52
2022-08-05T06:17:52.815Z,97422.02
2022-08-05T06:20:21.285Z,97417.20
2022-08-05T06:22:49.906Z,97416.92
2022-08-05T06:25:59.534Z,97420.94
2022-08-05T06:28:10.467Z,97419.14
2022-08-05T06:30:41.335Z,97416.86
2022-08-05T06:33:09.985Z,97415.24
2022-08-05T06:36:07.489Z,97414.58
2022-08-05T06:38:35.617Z,97415.02
2022-08-05T06:41:04.705Z,97413.03
2022-08-05T06:43:58.162Z,97418.09
2022-08-05T06:46:20.809Z,97414.95
2022-08-05T06:48:55.832Z,97418.61
2022-08-05T06:51:29.716Z,97416.16
2022-08-05T06:53:59.783Z,97419.09
2022-08-05T06:56:28.449Z,97418.70
2022-08-05T06:58:56.299Z,97422.05
2022-08-05T07:01:27.681Z,97419.98
2022-08-05T07:04:02.474Z,97419.95
2022-08-05T07:06:31.982Z,97424.02
2022-08-05T07:09:04.143Z,97421.73
2022-08-05T07:11:36.800Z,97419.77
2022-08-05T07:14:29.376Z,97423.09
2022-08-05T07:18:02.278Z,97418.46
2022-08-05T07:22:41.925Z,97413.52
2022-08-05T07:25:55.601Z,97411.40
2022-08-05T07:28:03.911Z,97410.35
2022-08-05T07:30:38.328Z,97406.23
2022-08-05T07:33:10.625Z,97403.23
2022-08-05T07:36:02.373Z,97406.63
2022-08-05T07:38:42.946Z,97405.98
2022-08-05T07:42:06.944Z,97405.35
2022-08-05T07:44:05.387Z,97405.28
2022-08-05T07:46:33.927Z,97404.70
2022-08-05T07:49:05.912Z,97409.77
2022-08-05T07:51:40.648Z,97409.91
2022-08-05T07:54:10.236Z,97406.39
2022-08-05T07:57:00.759Z,97410.94
2022-08-05T07:59:38.069Z,97412.58
2022-08-05T08:02:16.650Z,97407.37
2022-08-05T08:04:46.636Z,97406.15
2022-08-05T08:07:15.408Z,97405.44
2022-08-05T08:09:43.791Z,97403.67
2022-08-05T08:12:33.323Z,97400.71
2022-08-05T08:15:02.622Z,97400.05
2022-08-05T08:17:32.151Z,97400.45
2022-08-05T08:20:21.381Z,97395.70
2022-08-05T08:22:52.296Z,97386.98
2022-08-05T08:25:26.875Z,97384.17
2022-08-05T08:28:18.008Z,97379.17
2022-08-05T08:30:47.397Z,97377.77
2022-08-05T08:33:17.825Z,97375.38
2022-08-05T08:35:52.930Z,97374.44
2022-08-05T08:38:35.189Z,97378.14
2022-08-05T08:41:08.685Z,97378.40
2022-08-05T08:45:20.090Z,97376.27
2022-08-05T08:46:27.607Z,97374.94
2022-08-05T08:49:07.841Z,97374.63
2022-08-05T08:52:03.573Z,97371.35
2022-08-05T08:54:36.316Z,97371.13
2022-08-05T08:57:11.226Z,97372.41
2022-08-05T08:59:41.860Z,97369.74
2022-08-05T09:02:16.595Z,97364.80
2022-08-05T09:04:58.178Z,97362.73
2022-08-05T09:07:39.862Z,97362.77
2022-08-05T09:10:22.125Z,97358.08
2022-08-05T09:12:57.071Z,97354.80
2022-08-05T09:15:36.760Z,97351.05
2022-08-05T09:18:09.042Z,97348.95
2022-08-05T09:20:38.406Z,97346.51
2022-08-05T09:23:09.495Z,97347.62
2022-08-05T09:26:01.797Z,97342.89
2022-08-05T09:28:31.687Z,97343.13
2022-08-05T09:31:43.562Z,97336.52
2022-08-05T09:34:04.097Z,97335.85
2022-08-05T09:36:54.402Z,97333.49
2022-08-05T09:39:41.485Z,97330.62
2022-08-05T09:42:23.194Z,97327.52
2022-08-05T09:44:57.197Z,97325.25
2022-08-05T09:47:55.827Z,97325.34
2022-08-05T09:50:44.264Z,97324.95
2022-08-05T09:53:22.721Z,97323.41
2022-08-05T09:56:03.620Z,97321.36
2022-08-05T09:58:33.156Z,97319.48
2022-08-05T10:01:07.267Z,97319.19
2022-08-05T10:04:09.969Z,97319.84
2022-08-05T10:06:40.818Z,97318.22
2022-08-05T10:09:25.087Z,97317.92
2022-08-05T10:12:29.986Z,97310.13
2022-08-05T10:15:13.213Z,97307.64
2022-08-05T10:17:54.588Z,97305.19
2022-08-05T10:20:25.674Z,97301.46
2022-08-05T10:22:53.797Z,97301.80
2022-08-05T10:25:21.645Z,97297.95
2022-08-05T10:28:12.807Z,97296.27
2022-08-05T10:31:20.103Z,97286.27
2022-08-05T10:33:28.733Z,97283.30
2022-08-05T10:36:00.036Z,97287.10
2022-08-05T10:38:28.956Z,97287.72
2022-08-05T10:40:58.132Z,97285.04
2022-08-05T10:43:35.859Z,97282.30
2022-08-05T10:46:07.006Z,97276.08
2022-08-05T10:48:52.915Z,97275.52
2022-08-05T10:51:28.790Z,97274.48
2022-08-05T10:54:00.904Z,97270.40
2022-08-05T10:56:31.253Z,97269.14
2022-08-05T10:59:07.199Z,97266.88
2022-08-05T11:01:55.033Z,97268.70
2022-08-05T11:04:42.511Z,97270.00
2022-08-05T11:07:12.142Z,97273.73
2022-08-05T11:09:46.711Z,97275.63
2022-08-05T11:12:24.883Z,97273.15
2022-08-05T11:15:19.197Z,97273.00
2022-08-05T11:17:57.565Z,97269.15
2022-08-05T11:20:31.381Z,97260.29
2022-08-05T11:23:02.202Z,97260.31
2022-08-05T11:26:04.344Z,97258.64
2022-08-05T11:28:27.974Z,97253.22
2022-08-05T11:30:56.126Z,97257.67
2022-08-05T11:33:43.840Z,97252.56
2022-08-05T11:36:34.204Z,97250.81
2022-08-05T11:39:08.604Z,97246.67
2022-08-05T11:42:01.462Z,97243.65
2022-08-05T11:44:53.410Z,97238.58
2022-08-05T11:47:49.690Z,97234.69
2022-08-05T11:50:15.061Z,97230.89
2022-08-05T11:52:44.031Z,97229.95
2022-08-05T11:55:14.655Z,97225.05
2022-08-05T11:58:10.028Z,97229.63
2022-08-05T12:00:38.115Z,97228.95
2022-08-05T12:03:28.859Z,97229.88
2022-08-05T12:06:01.872Z,97229.54
2022-08-05T12:08:32.674Z,97226.52
2022-08-05T12:11:06.170Z,97226.73
2022-08-05T12:13:48.821Z,97225.84
2022-08-05T12:16:25.376Z,97217.98
2022-08-05T12:18:55.713Z,97222.70
2022-08-05T12:21:23.975Z,97218.80
2022-08-05T12:24:05.025Z,97218.99
2022-08-05T12:26:39.264Z,97219.72
2022-08-05T12:29:16.412Z,97220.02
2022-08-05T12:32:01.787Z,97217.79
2022-08-05T12:34:35.776Z,97211.52
2022-08-05T12:37:10.942Z,97208.89
2022-08-05T12:39:48.743Z,97204.58
2022-08-05T12:42:20.826Z,97199.29
2022-08-05T12:44:48.895Z,97196.33
2022-08-05T12:47:30.765Z,97195.75
2022-08-05T12:50:04.252Z,97191.40
2022-08-05T12:52:42.216Z,97190.30
2022-08-05T12:55:22.314Z,97191.27
2022-08-05T12:58:50.506Z,97188.46
2022-08-05T13:02:01.385Z,97183.89
2022-08-05T13:03:38.942Z,97183.84
2022-08-05T13:06:17.609Z,97178.01
2022-08-05T13:08:51.657Z,97173.80
2022-08-05T13:12:01.043Z,97171.90
2022-08-05T13:14:25.030Z,97171.88
2022-08-05T13:17:08.608Z,97172.58
2022-08-05T13:19:51.773Z,97176.60
2022-08-05T13:22:28.325Z,97175.19
2022-08-05T13:25:05.477Z,97173.71
2022-08-05T13:27:42.365Z,97174.36
2022-08-05T13:30:33.171Z,97169.98
2022-08-05T13:33:01.193Z,97170.55
2022-08-05T13:35:42.536Z,97168.30
2022-08-05T13:38:28.282Z,97165.69
2022-08-05T13:40:59.874Z,97161.48
2022-08-05T13:43:45.341Z,97161.88
2022-08-05T13:46:35.677Z,97161.34
2022-08-05T13:49:10.575Z,97160.02
2022-08-05T13:51:41.408Z,97160.44
2022-08-05T13:54:15.530Z,97161.02
2022-08-05T13:56:50.333Z,97155.74
2022-08-05T13:59:21.341Z,97154.14
2022-08-05T14:01:56.885Z,97150.02
2022-08-05T14:05:00.852Z,97145.60
2022-08-05T14:08:05.549Z,97143.36
2022-08-05T14:10:28.710Z,97139.79
2022-08-05T14:12:59.773Z,97132.42
2022-08-05T14:16:09.006Z,97127.02
2022-08-05T14:18:18.566Z,97128.85
2022-08-05T14:20:54.429Z,97128.39
2022-08-05T14:23:25.841Z,97123.55
2022-08-05T14:25:58.542Z,97124.94
2022-08-05T14:28:29.232Z,97127.88
2022-08-05T14:30:58.175Z,97124.23
2022-08-05T14:33:26.097Z,97120.80
2022-08-05T14:35:54.768Z,97123.98
2022-08-05T14:38:32.485Z,97124.60
2022-08-05T14:41:06.467Z,97124.11
2022-08-05T14:44:02.597Z,97119.19
2022-08-05T14:46:28.395Z,97114.27
2022-08-05T14:49:03.438Z,97114.66
2022-08-05T14:51:42.747Z,97112.85
2022-08-05T14:54:26.791Z,97114.81
2022-08-05T14:56:57.534Z,97109.64
2022-08-05T14:59:29.564Z,97106.96
2022-08-05T15:02:14.704Z,97107.30
2022-08-05T15:04:45.015Z,97100.27
2022-08-05T15:08:12.485Z,97098.05
2022-08-05T15:10:04.412Z,97091.71
2022-08-05T15:12:59.880Z,97089.31
2022-08-05T15:15:55.076Z,97091.09
2022-08-05T15:18:14.796Z,97087.02
2022-08-05T15:20:45.950Z,97083.88
2022-08-05T15:23:14.361Z,97081.78
2022-08-05T15:25:52.679Z,97079.73
2022-08-05T15:28:27.394Z,97072.11
2022-08-05T15:30:57.015Z,97068.30
2022-08-05T15:34:04.678Z,97069.97
2022-08-05T15:36:17.754Z,97070.02
2022-08-05T15:40:41.369Z,97073.84
2022-08-05T15:41:55.187Z,97073.33
2022-08-05T15:44:24.966Z,97075.20
2022-08-05T15:46:53.715Z,97072.21
2022-08-05T15:49:55.337Z,97069.77
2022-08-05T15:52:16.157Z,97066.76
2022-08-05T15:54:45.080Z,97067.00
2022-08-05T15:57:14.411Z,97066.21
2022-08-05T15:59:44.346Z,97064.36
2022-08-05T16:02:27.622Z,97063.51
2022-08-05T16:04:56.427Z,97058.53
2022-08-05T16:07:24.685Z,97062.50
2022-08-05T16:09:57.776Z,97061.69
2022-08-05T16:12:25.949Z,97063.64
2022-08-05T16:14:54.431Z,97061.39
2022-08-05T16:17:23.064Z,97060.70
2022-08-05T16:20:04.168Z,97059.02
2022-08-05T16:22:34.718Z,97060.95
2022-08-05T16:25:09.674Z,97063.13
2022-08-05T16:28:01.014Z,97065.14
2022-08-05T16:30:28.810Z,97065.36
2022-08-05T16:32:58.052Z,97064.33
2022-08-05T16:35:28.355Z,97063.64
2022-08-05T16:38:02.929Z,97065.33
2022-08-05T16:40:51.595Z,97068.53
2022-08-05T16:43:26.777Z,97069.77
2022-08-05T16:46:04.214Z,97067.30
2022-08-05T16:48:38.505Z,97067.98
2022-08-05T16:51:09.414Z,97070.04
2022-08-05T16:54:05.933Z,97068.79
2022-08-05T16:56:28.132Z,97065.70
2022-08-05T16:58:56.072Z,97067.25
2022-08-05T17:01:25.102Z,97065.28
2022-08-05T17:03:53.087Z,97070.76
2022-08-05T17:06:24.681Z,97070.93
2022-08-05T17:08:54.298Z,97077.50
2022-08-05T17:11:25.288Z,97081.32
2022-08-05T17:14:00.299Z,97083.44
2022-08-05T17:16:36.490Z,97084.95
2022-08-05T17:19:07.583Z,97089.44
2022-08-05T17:21:39.757Z,97089.91
2022-08-05T17:24:19.310Z,97091.71
2022-08-05T17:26:59.241Z,97091.17
2022-08-05T17:29:33.059Z,97093.62
2022-08-05T17:32:02.274Z,97097.80
2022-08-05T17:34:32.220Z,97098.32
2022-08-05T17:37:04.650Z,97097.46
2022-08-05T17:39:55.871Z,97095.42
2022-08-05T17:42:29.865Z,97098.86
2022-08-05T17:45:09.854Z,97102.23
2022-08-05T17:47:54.982Z,97101.73
2022-08-05T17:50:28.392Z,97104.31
2022-08-05T17:52:59.680Z,97109.67
2022-08-05T17:55:34.302Z,97108.56
2022-08-05T17:58:12.491Z,97112.10
2022-08-05T18:00:47.647Z,97112.98
2022-08-05T18:06:11.925Z,97122.46
2022-08-05T18:08:52.141Z,97123.38
2022-08-05T18:11:32.868Z,97126.06
2022-08-05T18:14:07.319Z,97127.91
2022-08-05T18:16:51.105Z,97134.17
2022-08-05T18:19:23.112Z,97136.58
2022-08-05T18:22:09.244Z,97136.08
2022-08-05T18:24:39.948Z,97138.80
2022-08-05T18:27:12.365Z,97137.96
2022-08-05T18:29:54.381Z,97138.49
2022-08-05T18:32:28.074Z,97139.38
2022-08-05T18:34:57.463Z,97144.34
2022-08-05T18:37:34.605Z,97145.60
2022-08-05T18:41:52.769Z,97148.23
2022-08-05T18:42:58.413Z,97154.45
2022-08-05T18:45:41.722Z,97154.58
2022-08-05T18:48:11.303Z,97156.36
2022-08-05T18:52:05.557Z,97154.13
2022-08-05T18:53:51.674Z,97160.55
2022-08-05T18:56:21.781Z,97163.66
2022-08-05T18:58:54.754Z,97169.38
2022-08-05T19:01:33.128Z,97170.74
2022-08-05T19:04:01.767Z,97172.19
2022-08-05T19:06:34.377Z,97174.27
2022-08-05T19:09:12.833Z,97172.70
2022-08-05T19:12:00.291Z,97175.71
2022-08-05T19:14:53.537Z,97178.27
2022-08-05T19:17:17.783Z,97183.08
2022-08-05T19:19:48.620Z,97180.27
2022-08-05T19:22:22.710Z,97184.14
2022-08-05T19:25:00.892Z,97183.69
2022-08-05T19:27:30.843Z,97183.21
2022-08-05T19:29:58.937Z,97182.59
2022-08-05T19:32:27.744Z,97181.48
2022-08-05T19:34:56.684Z,97178.83
2022-08-05T19:37:47.446Z,97179.36
2022-08-05T19:40:16.030Z,97175.72
2022-08-05T19:43:04.719Z,97175.39
2022-08-05T19:45:36.873Z,97174.14
2022-08-05T19:48:06.247Z,97173.67
2022-08-05T19:50:35.184Z,97172.09
2022-08-05T19:53:09.322Z,97175.07
2022-08-05T19:56:14.993Z,97175.77
2022-08-05T19:58:29.497Z,97181.98
2022-08-05T20:00:58.548Z,97181.17
2022-08-05T20:03:27.638Z,97178.96
2022-08-05T20:06:11.863Z,97177.86
2022-08-05T20:08:47.437Z,97175.79
2022-08-05T20:11:18.106Z,97178.52
2022-08-05T20:13:58.761Z,97178.04
2022-08-05T20:16:35.928Z,97183.02
2022-08-05T20:19:05.530Z,97185.41
2022-08-05T20:21:34.833Z,97190.02
2022-08-05T20:24:06.770Z,97188.02
2022-08-05T20:26:34.645Z,97184.69
2022-08-05T20:29:02.636Z,97185.90
2022-08-05T20:31:42.102Z,97188.45
2022-08-05T20:34:12.515Z,97189.96
2022-08-05T20:36:43.310Z,97188.67
2022-08-05T20:39:13.249Z,97187.42
2022-08-05T20:41:44.266Z,97186.45
2022-08-05T20:44:17.510Z,97182.23
2022-08-05T20:46:48.059Z,97184.11
2022-08-05T20:49:24.209Z,97180.14
2022-08-05T20:51:54.723Z,97177.27
2022-08-05T20:54:24.636Z,97179.03
2022-08-05T20:56:53.264Z,97181.96
2022-08-05T20:59:26.518Z,97176.11
2022-08-05T21:01:57.923Z,97173.55
2022-08-05T21:04:26.837Z,97176.95
2022-08-05T21:06:55.810Z,97178.96
2022-08-05T21:09:23.958Z,97177.99
2022-08-05T21:12:10.904Z,97179.60
2022-08-05T21:14:39.909Z,97178.23
2022-08-05T21:17:07.804Z,97180.63
2022-08-05T21:19:47.375Z,97180.66
2022-08-05T21:22:23.046Z,97181.09
2022-08-05T21:24:54.347Z,97182.05
2022-08-05T21:27:24.677Z,97179.64
2022-08-05T21:29:55.506Z,97177.77
2022-08-05T21:32:26.710Z,97179.79
2022-08-05T21:35:17.413Z,97180.14
2022-08-05T21:37:52.669Z,97183.14
2022-08-05T21:40:24.841Z,97184.36
2022-08-05T21:42:53.698Z,97187.23
2022-08-05T21:45:26.501Z,97187.05
2022-08-05T21:48:10.149Z,97186.77
2022-08-05T21:50:53.044Z,97183.51
2022-08-05T21:53:23.236Z,97183.98
2022-08-05T21:56:06.316Z,97180.80
2022-08-05T21:58:48.399Z,97182.64
2022-08-05T22:01:26.479Z,97181.19
2022-08-05T22:03:54.572Z,97182.32
2022-08-05T22:06:35.182Z,97185.47
2022-08-05T22:09:13.627Z,97186.91
2022-08-05T22:11:43.687Z,97188.13
2022-08-05T22:14:34.387Z,97187.60
2022-08-05T22:17:07.126Z,97190.61
2022-08-05T22:20:01.662Z,97191.43
2022-08-05T22:22:27.709Z,97188.96
2022-08-05T22:25:18.049Z,97190.02
2022-08-05T22:28:09.184Z,97191.63
2022-08-05T22:30:44.324Z,97191.92
2022-08-05T22:33:58.605Z,97191.03
2022-08-05T22:36:14.237Z,97189.77
2022-08-05T22:38:48.157Z,97189.48
2022-08-05T22:42:04.861Z,97186.09
2022-08-05T22:44:08.225Z,97181.11
2022-08-05T22:46:39.923Z,97176.14
2022-08-05T22:49:12.506Z,97179.95
2022-08-05T22:52:05.085Z,97177.80
2022-08-05T22:54:36.251Z,97173.45
2022-08-05T22:57:05.548Z,97176.83
2022-08-05T22:59:44.066Z,97179.09
2022-08-05T23:02:28.964Z,97176.38
2022-08-05T23:05:02.054Z,97179.99
2022-08-05T23:07:44.715Z,97181.48
2022-08-05T23:10:20.241Z,97183.69
2022-08-05T23:12:51.735Z,97182.64
2022-08-05T23:15:29.933Z,97185.49
2022-08-05T23:18:06.190Z,97183.43
2022-08-05T23:20:39.806Z,97182.85
2022-08-05T23:23:08.802Z,97180.77
2022-08-05T23:25:53.412Z,97181.91
2022-08-05T23:28:29.083Z,97181.73
2022-08-05T23:31:15.691Z,97173.95
2022-08-05T23:34:03.965Z,97173.46
2022-08-05T23:36:38.401Z,97170.14
2022-08-05T23:39:07.243Z,97171.27
2022-08-05T23:41:37.384Z,97169.05
2022-08-05T23:44:09.150Z,97170.20
2022-08-05T23:46:39.350Z,97171.88
2022-08-05T23:49:16.479Z,97174.10
2022-08-05T23:52:05.742Z,97168.35
2022-08-05T23:54:38.132Z,97168.00
2022-08-05T23:57:07.392Z,97169.14
